sensor_id;sensor_type;location;lat;lon;timestamp;P1;durP1;ratioP1;P2;durP2;ratioP2
11486;SDS011;10510;47.942;9.442;2023-04-24T00:00:37;2.28;;;1.00;;
11486;SDS011;10510;47.942;9.442;2023-04-24T00:02:44;2.67;;;0.93;;
11486;SDS011;10510;47.942;9.442;2023-04-24T00:04:46;1.85;;;1.00;;
11486;SDS011;10510;47.942;9.442;2023-04-24T00:06:47;1.40;;;1.20;;
11486;SDS011;10510;47.942;9.442;2023-04-24T00:08:53;2.03;;;1.55;;
11486;SDS011;10510;47.942;9.442;2023-04-24T00:10:54;1.63;;;1.25;;
11486;SDS011;10510;47.942;9.442;2023-04-24T00:12:54;1.65;;;0.90;;
11486;SDS011;10510;47.942;9.442;2023-04-24T00:14:54;1.52;;;1.13;;
11486;SDS011;10510;47.942;9.442;2023-04-24T00:16:54;3.85;;;1.00;;
11486;SDS011;10510;47.942;9.442;2023-04-24T00:18:55;2.53;;;1.38;;
11486;SDS011;10510;47.942;9.442;2023-04-24T00:20:55;2.22;;;1.10;;
11486;SDS011;10510;47.942;9.442;2023-04-24T00:22:55;1.50;;;1.13;;
11486;SDS011;10510;47.942;9.442;2023-04-24T00:24:55;2.38;;;1.13;;
11486;SDS011;10510;47.942;9.442;2023-04-24T00:26:56;4.05;;;1.52;;
11486;SDS011;10510;47.942;9.442;2023-04-24T00:28:57;2.53;;;1.30;;
11486;SDS011;10510;47.942;9.442;2023-04-24T00:30:57;2.03;;;1.35;;
11486;SDS011;10510;47.942;9.442;2023-04-24T00:32:57;2.63;;;1.30;;
11486;SDS011;10510;47.942;9.442;2023-04-24T00:34:58;1.02;;;0.93;;
11486;SDS011;10510;47.942;9.442;2023-04-24T00:36:58;3.35;;;1.42;;
11486;SDS011;10510;47.942;9.442;2023-04-24T00:38:58;2.25;;;1.48;;
11486;SDS011;10510;47.942;9.442;2023-04-24T00:40:58;3.35;;;1.35;;
11486;SDS011;10510;47.942;9.442;2023-04-24T00:42:59;1.77;;;1.45;;
11486;SDS011;10510;47.942;9.442;2023-04-24T00:45:00;3.38;;;1.08;;
11486;SDS011;10510;47.942;9.442;2023-04-24T00:47:00;2.55;;;1.08;;
11486;SDS011;10510;47.942;9.442;2023-04-24T00:49:01;1.63;;;0.95;;
11486;SDS011;10510;47.942;9.442;2023-04-24T00:51:02;2.35;;;1.30;;
11486;SDS011;10510;47.942;9.442;2023-04-24T00:53:03;6.53;;;1.23;;
11486;SDS011;10510;47.942;9.442;2023-04-24T00:55:03;1.50;;;1.10;;
11486;SDS011;10510;47.942;9.442;2023-04-24T00:57:03;1.63;;;1.10;;
11486;SDS011;10510;47.942;9.442;2023-04-24T00:59:04;2.35;;;1.10;;
11486;SDS011;10510;47.942;9.442;2023-04-24T01:01:05;2.25;;;1.35;;
11486;SDS011;10510;47.942;9.442;2023-04-24T01:03:06;3.45;;;2.10;;
11486;SDS011;10510;47.942;9.442;2023-04-24T01:05:07;2.13;;;1.35;;
11486;SDS011;10510;47.942;9.442;2023-04-24T01:07:08;1.58;;;1.27;;
11486;SDS011;10510;47.942;9.442;2023-04-24T01:09:10;1.42;;;1.30;;
11486;SDS011;10510;47.942;9.442;2023-04-24T01:11:12;2.40;;;1.40;;
11486;SDS011;10510;47.942;9.442;2023-04-24T01:13:12;1.85;;;1.35;;
11486;SDS011;10510;47.942;9.442;2023-04-24T01:15:13;2.50;;;1.40;;
11486;SDS011;10510;47.942;9.442;2023-04-24T01:17:13;2.00;;;1.35;;
11486;SDS011;10510;47.942;9.442;2023-04-24T01:19:13;2.97;;;1.40;;
11486;SDS011;10510;47.942;9.442;2023-04-24T01:21:16;3.78;;;1.80;;
11486;SDS011;10510;47.942;9.442;2023-04-24T01:23:18;2.35;;;1.40;;
11486;SDS011;10510;47.942;9.442;2023-04-24T01:25:19;2.30;;;1.50;;
11486;SDS011;10510;47.942;9.442;2023-04-24T01:27:19;2.28;;;1.48;;
11486;SDS011;10510;47.942;9.442;2023-04-24T01:29:20;1.67;;;1.40;;
11486;SDS011;10510;47.942;9.442;2023-04-24T01:31:21;3.85;;;1.45;;
11486;SDS011;10510;47.942;9.442;2023-04-24T01:33:22;3.05;;;1.30;;
11486;SDS011;10510;47.942;9.442;2023-04-24T01:35:22;3.65;;;1.60;;
11486;SDS011;10510;47.942;9.442;2023-04-24T01:37:22;4.25;;;1.83;;
11486;SDS011;10510;47.942;9.442;2023-04-24T01:39:23;2.15;;;1.60;;
11486;SDS011;10510;47.942;9.442;2023-04-24T01:41:25;3.60;;;1.60;;
11486;SDS011;10510;47.942;9.442;2023-04-24T01:43:25;5.05;;;1.80;;
11486;SDS011;10510;47.942;9.442;2023-04-24T01:45:26;2.00;;;1.40;;
11486;SDS011;10510;47.942;9.442;2023-04-24T01:47:26;3.22;;;1.92;;
11486;SDS011;10510;47.942;9.442;2023-04-24T01:49:27;2.63;;;1.77;;
11486;SDS011;10510;47.942;9.442;2023-04-24T01:51:27;4.43;;;1.85;;
11486;SDS011;10510;47.942;9.442;2023-04-24T01:53:28;3.45;;;2.10;;
11486;SDS011;10510;47.942;9.442;2023-04-24T01:55:28;4.20;;;2.40;;
11486;SDS011;10510;47.942;9.442;2023-04-24T01:57:28;4.55;;;2.22;;
11486;SDS011;10510;47.942;9.442;2023-04-24T01:59:30;3.10;;;2.17;;
11486;SDS011;10510;47.942;9.442;2023-04-24T02:01:36;5.70;;;2.40;;
11486;SDS011;10510;47.942;9.442;2023-04-24T02:03:37;3.05;;;2.10;;
11486;SDS011;10510;47.942;9.442;2023-04-24T02:05:37;3.78;;;2.35;;
11486;SDS011;10510;47.942;9.442;2023-04-24T02:07:37;2.88;;;2.00;;
11486;SDS011;10510;47.942;9.442;2023-04-24T02:09:37;5.22;;;2.67;;
11486;SDS011;10510;47.942;9.442;2023-04-24T02:11:38;4.15;;;2.20;;
11486;SDS011;10510;47.942;9.442;2023-04-24T02:13:38;3.35;;;1.90;;
11486;SDS011;10510;47.942;9.442;2023-04-24T02:15:38;5.82;;;2.13;;
11486;SDS011;10510;47.942;9.442;2023-04-24T02:17:38;3.33;;;1.90;;
11486;SDS011;10510;47.942;9.442;2023-04-24T02:19:39;2.60;;;2.13;;
11486;SDS011;10510;47.942;9.442;2023-04-24T02:21:39;1.83;;;1.55;;
11486;SDS011;10510;47.942;9.442;2023-04-24T02:23:39;3.70;;;1.90;;
11486;SDS011;10510;47.942;9.442;2023-04-24T02:25:40;2.03;;;1.45;;
11486;SDS011;10510;47.942;9.442;2023-04-24T02:27:40;5.90;;;1.55;;
11486;SDS011;10510;47.942;9.442;2023-04-24T02:29:40;2.80;;;1.67;;
11486;SDS011;10510;47.942;9.442;2023-04-24T02:31:41;2.88;;;1.60;;
11486;SDS011;10510;47.942;9.442;2023-04-24T02:33:41;2.15;;;1.83;;
11486;SDS011;10510;47.942;9.442;2023-04-24T02:35:41;2.17;;;1.42;;
11486;SDS011;10510;47.942;9.442;2023-04-24T02:37:41;2.05;;;1.30;;
11486;SDS011;10510;47.942;9.442;2023-04-24T02:39:42;2.10;;;1.60;;
11486;SDS011;10510;47.942;9.442;2023-04-24T02:41:42;2.22;;;1.40;;
11486;SDS011;10510;47.942;9.442;2023-04-24T02:43:43;5.15;;;1.20;;
11486;SDS011;10510;47.942;9.442;2023-04-24T02:45:43;2.85;;;1.50;;
11486;SDS011;10510;47.942;9.442;2023-04-24T02:47:44;1.83;;;1.33;;
11486;SDS011;10510;47.942;9.442;2023-04-24T02:49:44;2.25;;;1.30;;
11486;SDS011;10510;47.942;9.442;2023-04-24T02:51:45;1.27;;;1.10;;
11486;SDS011;10510;47.942;9.442;2023-04-24T02:53:45;2.38;;;1.60;;
11486;SDS011;10510;47.942;9.442;2023-04-24T02:55:45;1.48;;;1.10;;
11486;SDS011;10510;47.942;9.442;2023-04-24T02:57:46;2.35;;;1.20;;
11486;SDS011;10510;47.942;9.442;2023-04-24T02:59:46;3.13;;;1.27;;
11486;SDS011;10510;47.942;9.442;2023-04-24T03:01:46;2.50;;;1.35;;
11486;SDS011;10510;47.942;9.442;2023-04-24T03:03:46;3.92;;;1.08;;
11486;SDS011;10510;47.942;9.442;2023-04-24T03:05:47;1.63;;;0.90;;
11486;SDS011;10510;47.942;9.442;2023-04-24T03:07:47;4.75;;;0.70;;
11486;SDS011;10510;47.942;9.442;2023-04-24T03:09:47;3.55;;;0.70;;
11486;SDS011;10510;47.942;9.442;2023-04-24T03:11:48;2.15;;;0.88;;
11486;SDS011;10510;47.942;9.442;2023-04-24T03:13:49;2.63;;;0.70;;
11486;SDS011;10510;47.942;9.442;2023-04-24T03:15:49;3.28;;;0.93;;
11486;SDS011;10510;47.942;9.442;2023-04-24T03:17:49;0.57;;;0.52;;
11486;SDS011;10510;47.942;9.442;2023-04-24T03:19:50;1.40;;;0.82;;
11486;SDS011;10510;47.942;9.442;2023-04-24T03:21:50;0.95;;;0.70;;
11486;SDS011;10510;47.942;9.442;2023-04-24T03:23:50;0.90;;;0.60;;
11486;SDS011;10510;47.942;9.442;2023-04-24T03:25:50;0.57;;;0.57;;
11486;SDS011;10510;47.942;9.442;2023-04-24T03:27:51;0.90;;;0.70;;
11486;SDS011;10510;47.942;9.442;2023-04-24T03:29:51;2.78;;;0.80;;
11486;SDS011;10510;47.942;9.442;2023-04-24T03:31:55;0.75;;;0.60;;
11486;SDS011;10510;47.942;9.442;2023-04-24T03:33:55;0.95;;;0.57;;
11486;SDS011;10510;47.942;9.442;2023-04-24T03:35:55;0.82;;;0.55;;
11486;SDS011;10510;47.942;9.442;2023-04-24T03:37:55;2.22;;;0.80;;
11486;SDS011;10510;47.942;9.442;2023-04-24T03:39:56;0.77;;;0.50;;
11486;SDS011;10510;47.942;9.442;2023-04-24T03:41:56;0.68;;;0.68;;
11486;SDS011;10510;47.942;9.442;2023-04-24T03:43:56;0.85;;;0.60;;
11486;SDS011;10510;47.942;9.442;2023-04-24T03:45:57;0.75;;;0.60;;
11486;SDS011;10510;47.942;9.442;2023-04-24T03:47:57;0.40;;;0.40;;
11486;SDS011;10510;47.942;9.442;2023-04-24T03:49:57;0.88;;;0.75;;
11486;SDS011;10510;47.942;9.442;2023-04-24T03:51:58;1.05;;;0.40;;
11486;SDS011;10510;47.942;9.442;2023-04-24T03:53:58;0.82;;;0.50;;
11486;SDS011;10510;47.942;9.442;2023-04-24T03:55:58;4.45;;;0.43;;
11486;SDS011;10510;47.942;9.442;2023-04-24T03:57:59;0.65;;;0.52;;
11486;SDS011;10510;47.942;9.442;2023-04-24T03:59:59;2.15;;;0.50;;
11486;SDS011;10510;47.942;9.442;2023-04-24T04:01:59;0.77;;;0.45;;
11486;SDS011;10510;47.942;9.442;2023-04-24T04:04:00;0.63;;;0.50;;
11486;SDS011;10510;47.942;9.442;2023-04-24T04:06:00;0.50;;;0.50;;
11486;SDS011;10510;47.942;9.442;2023-04-24T04:08:00;0.60;;;0.50;;
11486;SDS011;10510;47.942;9.442;2023-04-24T04:10:00;0.38;;;0.38;;
11486;SDS011;10510;47.942;9.442;2023-04-24T04:12:01;0.65;;;0.65;;
11486;SDS011;10510;47.942;9.442;2023-04-24T04:14:01;0.90;;;0.60;;
11486;SDS011;10510;47.942;9.442;2023-04-24T04:16:01;0.98;;;0.60;;
11486;SDS011;10510;47.942;9.442;2023-04-24T04:18:02;0.90;;;0.60;;
11486;SDS011;10510;47.942;9.442;2023-04-24T04:20:02;0.80;;;0.50;;
11486;SDS011;10510;47.942;9.442;2023-04-24T04:22:07;0.75;;;0.60;;
11486;SDS011;10510;47.942;9.442;2023-04-24T04:24:08;0.60;;;0.60;;
11486;SDS011;10510;47.942;9.442;2023-04-24T04:26:10;2.63;;;0.50;;
11486;SDS011;10510;47.942;9.442;2023-04-24T04:28:11;0.70;;;0.70;;
11486;SDS011;10510;47.942;9.442;2023-04-24T04:30:11;0.90;;;0.80;;
11486;SDS011;10510;47.942;9.442;2023-04-24T04:32:12;1.00;;;0.70;;
11486;SDS011;10510;47.942;9.442;2023-04-24T04:34:12;0.45;;;0.40;;
11486;SDS011;10510;47.942;9.442;2023-04-24T04:36:13;0.82;;;0.60;;
11486;SDS011;10510;47.942;9.442;2023-04-24T04:38:14;0.43;;;0.43;;
11486;SDS011;10510;47.942;9.442;2023-04-24T04:40:15;0.60;;;0.50;;
11486;SDS011;10510;47.942;9.442;2023-04-24T04:42:15;1.23;;;0.50;;
11486;SDS011;10510;47.942;9.442;2023-04-24T04:44:16;0.57;;;0.57;;
11486;SDS011;10510;47.942;9.442;2023-04-24T04:46:16;0.70;;;0.50;;
11486;SDS011;10510;47.942;9.442;2023-04-24T04:48:16;0.50;;;0.50;;
11486;SDS011;10510;47.942;9.442;2023-04-24T04:50:17;1.70;;;0.70;;
11486;SDS011;10510;47.942;9.442;2023-04-24T04:52:18;1.23;;;0.52;;
11486;SDS011;10510;47.942;9.442;2023-04-24T04:54:19;0.47;;;0.47;;
11486;SDS011;10510;47.942;9.442;2023-04-24T04:56:19;1.70;;;0.80;;
11486;SDS011;10510;47.942;9.442;2023-04-24T04:58:19;0.60;;;0.50;;
11486;SDS011;10510;47.942;9.442;2023-04-24T05:00:20;1.63;;;0.50;;
11486;SDS011;10510;47.942;9.442;2023-04-24T05:02:21;0.63;;;0.50;;
11486;SDS011;10510;47.942;9.442;2023-04-24T05:04:21;0.55;;;0.50;;
11486;SDS011;10510;47.942;9.442;2023-04-24T05:06:21;0.52;;;0.45;;
11486;SDS011;10510;47.942;9.442;2023-04-24T05:08:21;0.50;;;0.50;;
11486;SDS011;10510;47.942;9.442;2023-04-24T05:10:22;0.38;;;0.38;;
11486;SDS011;10510;47.942;9.442;2023-04-24T05:12:22;0.50;;;0.40;;
11486;SDS011;10510;47.942;9.442;2023-04-24T05:14:22;1.73;;;0.50;;
11486;SDS011;10510;47.942;9.442;2023-04-24T05:16:23;0.50;;;0.50;;
11486;SDS011;10510;47.942;9.442;2023-04-24T05:18:23;0.30;;;0.30;;
11486;SDS011;10510;47.942;9.442;2023-04-24T05:20:23;0.85;;;0.50;;
11486;SDS011;10510;47.942;9.442;2023-04-24T05:22:23;0.52;;;0.32;;
11486;SDS011;10510;47.942;9.442;2023-04-24T05:24:24;0.80;;;0.60;;
11486;SDS011;10510;47.942;9.442;2023-04-24T05:26:24;0.52;;;0.40;;
11486;SDS011;10510;47.942;9.442;2023-04-24T05:28:24;0.40;;;0.40;;
11486;SDS011;10510;47.942;9.442;2023-04-24T05:30:28;2.10;;;0.70;;
11486;SDS011;10510;47.942;9.442;2023-04-24T05:32:28;2.67;;;0.50;;
11486;SDS011;10510;47.942;9.442;2023-04-24T05:34:28;0.73;;;0.40;;
11486;SDS011;10510;47.942;9.442;2023-04-24T05:36:29;0.90;;;0.50;;
11486;SDS011;10510;47.942;9.442;2023-04-24T05:38:29;2.50;;;0.40;;
11486;SDS011;10510;47.942;9.442;2023-04-24T05:40:29;0.77;;;0.47;;
11486;SDS011;10510;47.942;9.442;2023-04-24T05:42:29;1.00;;;0.40;;
11486;SDS011;10510;47.942;9.442;2023-04-24T05:44:30;1.38;;;0.40;;
11486;SDS011;10510;47.942;9.442;2023-04-24T05:46:30;0.45;;;0.40;;
11486;SDS011;10510;47.942;9.442;2023-04-24T05:48:31;0.63;;;0.60;;
11486;SDS011;10510;47.942;9.442;2023-04-24T05:50:31;0.30;;;0.30;;
11486;SDS011;10510;47.942;9.442;2023-04-24T05:52:31;2.13;;;0.25;;
11486;SDS011;10510;47.942;9.442;2023-04-24T05:54:31;0.28;;;0.28;;
11486;SDS011;10510;47.942;9.442;2023-04-24T05:56:32;0.82;;;0.40;;
11486;SDS011;10510;47.942;9.442;2023-04-24T05:58:32;0.50;;;0.30;;
11486;SDS011;10510;47.942;9.442;2023-04-24T06:00:32;0.30;;;0.20;;
11486;SDS011;10510;47.942;9.442;2023-04-24T06:02:33;1.75;;;0.40;;
11486;SDS011;10510;47.942;9.442;2023-04-24T06:04:33;0.20;;;0.20;;
11486;SDS011;10510;47.942;9.442;2023-04-24T06:06:34;0.22;;;0.20;;
11486;SDS011;10510;47.942;9.442;2023-04-24T06:08:35;0.52;;;0.43;;
11486;SDS011;10510;47.942;9.442;2023-04-24T06:10:36;0.50;;;0.30;;
11486;SDS011;10510;47.942;9.442;2023-04-24T06:12:36;0.30;;;0.30;;
11486;SDS011;10510;47.942;9.442;2023-04-24T06:14:37;0.38;;;0.30;;
11486;SDS011;10510;47.942;9.442;2023-04-24T06:16:37;0.40;;;0.40;;
11486;SDS011;10510;47.942;9.442;2023-04-24T06:18:38;0.40;;;0.40;;
11486;SDS011;10510;47.942;9.442;2023-04-24T06:20:39;0.45;;;0.45;;
11486;SDS011;10510;47.942;9.442;2023-04-24T06:22:39;0.90;;;0.52;;
11486;SDS011;10510;47.942;9.442;2023-04-24T06:24:40;4.28;;;0.47;;
11486;SDS011;10510;47.942;9.442;2023-04-24T06:26:40;7.03;;;0.50;;
11486;SDS011;10510;47.942;9.442;2023-04-24T06:28:41;0.90;;;0.43;;
11486;SDS011;10510;47.942;9.442;2023-04-24T06:30:41;0.60;;;0.50;;
11486;SDS011;10510;47.942;9.442;2023-04-24T06:32:41;2.85;;;0.63;;
11486;SDS011;10510;47.942;9.442;2023-04-24T06:34:41;2.05;;;0.40;;
11486;SDS011;10510;47.942;9.442;2023-04-24T06:36:42;2.35;;;0.80;;
11486;SDS011;10510;47.942;9.442;2023-04-24T06:38:42;0.50;;;0.50;;
11486;SDS011;10510;47.942;9.442;2023-04-24T06:40:42;0.40;;;0.40;;
11486;SDS011;10510;47.942;9.442;2023-04-24T06:42:43;1.35;;;0.70;;
11486;SDS011;10510;47.942;9.442;2023-04-24T06:44:43;1.60;;;0.77;;
11486;SDS011;10510;47.942;9.442;2023-04-24T06:46:44;2.15;;;0.77;;
11486;SDS011;10510;47.942;9.442;2023-04-24T06:48:44;2.08;;;0.60;;
11486;SDS011;10510;47.942;9.442;2023-04-24T06:50:44;0.70;;;0.70;;
11486;SDS011;10510;47.942;9.442;2023-04-24T06:52:45;1.05;;;0.68;;
11486;SDS011;10510;47.942;9.442;2023-04-24T06:54:45;3.08;;;0.80;;
11486;SDS011;10510;47.942;9.442;2023-04-24T06:56:45;0.50;;;0.50;;
11486;SDS011;10510;47.942;9.442;2023-04-24T06:58:47;1.25;;;0.65;;
11486;SDS011;10510;47.942;9.442;2023-04-24T07:00:48;0.73;;;0.60;;
11486;SDS011;10510;47.942;9.442;2023-04-24T07:02:48;0.50;;;0.50;;
11486;SDS011;10510;47.942;9.442;2023-04-24T07:04:48;0.88;;;0.82;;
11486;SDS011;10510;47.942;9.442;2023-04-24T07:06:49;0.90;;;0.80;;
11486;SDS011;10510;47.942;9.442;2023-04-24T07:08:49;1.05;;;0.70;;
11486;SDS011;10510;47.942;9.442;2023-04-24T07:10:49;1.00;;;0.70;;
11486;SDS011;10510;47.942;9.442;2023-04-24T07:12:51;0.65;;;0.60;;
11486;SDS011;10510;47.942;9.442;2023-04-24T07:14:51;1.38;;;0.70;;
11486;SDS011;10510;47.942;9.442;2023-04-24T07:16:51;0.82;;;0.63;;
11486;SDS011;10510;47.942;9.442;2023-04-24T07:18:52;1.13;;;0.77;;
11486;SDS011;10510;47.942;9.442;2023-04-24T07:20:52;2.03;;;0.70;;
11486;SDS011;10510;47.942;9.442;2023-04-24T07:22:52;4.07;;;0.90;;
11486;SDS011;10510;47.942;9.442;2023-04-24T07:24:53;0.80;;;0.70;;
11486;SDS011;10510;47.942;9.442;2023-04-24T07:26:54;0.68;;;0.65;;
11486;SDS011;10510;47.942;9.442;2023-04-24T07:28:55;1.17;;;0.80;;
11486;SDS011;10510;47.942;9.442;2023-04-24T07:30:55;1.15;;;0.60;;
11486;SDS011;10510;47.942;9.442;2023-04-24T07:32:55;1.85;;;0.80;;
11486;SDS011;10510;47.942;9.442;2023-04-24T07:34:56;2.85;;;1.50;;
11486;SDS011;10510;47.942;9.442;2023-04-24T07:36:56;1.77;;;1.00;;
11486;SDS011;10510;47.942;9.442;2023-04-24T07:38:56;2.13;;;1.00;;
11486;SDS011;10510;47.942;9.442;2023-04-24T07:40:57;1.33;;;1.00;;
11486;SDS011;10510;47.942;9.442;2023-04-24T07:42:57;0.95;;;0.85;;
11486;SDS011;10510;47.942;9.442;2023-04-24T07:44:57;2.63;;;1.10;;
11486;SDS011;10510;47.942;9.442;2023-04-24T07:46:59;1.02;;;0.80;;
11486;SDS011;10510;47.942;9.442;2023-04-24T07:48:59;2.92;;;1.05;;
11486;SDS011;10510;47.942;9.442;2023-04-24T07:51:01;0.95;;;0.88;;
11486;SDS011;10510;47.942;9.442;2023-04-24T07:53:01;2.10;;;1.00;;
11486;SDS011;10510;47.942;9.442;2023-04-24T07:55:01;2.08;;;1.25;;
11486;SDS011;10510;47.942;9.442;2023-04-24T07:57:02;0.98;;;0.80;;
11486;SDS011;10510;47.942;9.442;2023-04-24T07:59:03;1.23;;;0.95;;
11486;SDS011;10510;47.942;9.442;2023-04-24T08:01:03;1.40;;;0.90;;
11486;SDS011;10510;47.942;9.442;2023-04-24T08:03:03;1.20;;;1.00;;
11486;SDS011;10510;47.942;9.442;2023-04-24T08:05:04;1.58;;;0.70;;
11486;SDS011;10510;47.942;9.442;2023-04-24T08:07:05;1.75;;;0.80;;
11486;SDS011;10510;47.942;9.442;2023-04-24T08:09:05;3.70;;;1.23;;
11486;SDS011;10510;47.942;9.442;2023-04-24T08:11:05;1.10;;;1.00;;
11486;SDS011;10510;47.942;9.442;2023-04-24T08:13:06;1.98;;;1.02;;
11486;SDS011;10510;47.942;9.442;2023-04-24T08:15:06;1.35;;;1.02;;
11486;SDS011;10510;47.942;9.442;2023-04-24T08:17:07;1.20;;;0.90;;
11486;SDS011;10510;47.942;9.442;2023-04-24T08:19:07;0.80;;;0.80;;
11486;SDS011;10510;47.942;9.442;2023-04-24T08:21:07;1.50;;;0.77;;
11486;SDS011;10510;47.942;9.442;2023-04-24T08:23:08;2.90;;;1.10;;
11486;SDS011;10510;47.942;9.442;2023-04-24T08:25:09;1.30;;;0.95;;
11486;SDS011;10510;47.942;9.442;2023-04-24T08:27:10;3.13;;;0.80;;
11486;SDS011;10510;47.942;9.442;2023-04-24T08:29:10;6.03;;;1.10;;
11486;SDS011;10510;47.942;9.442;2023-04-24T08:31:10;2.85;;;0.98;;
11486;SDS011;10510;47.942;9.442;2023-04-24T08:33:11;2.03;;;1.05;;
11486;SDS011;10510;47.942;9.442;2023-04-24T08:35:11;2.42;;;1.40;;
11486;SDS011;10510;47.942;9.442;2023-04-24T08:37:11;5.47;;;1.20;;
11486;SDS011;10510;47.942;9.442;2023-04-24T08:39:12;4.32;;;0.98;;
11486;SDS011;10510;47.942;9.442;2023-04-24T08:41:12;1.90;;;1.20;;
11486;SDS011;10510;47.942;9.442;2023-04-24T08:43:14;1.98;;;1.00;;
11486;SDS011;10510;47.942;9.442;2023-04-24T08:45:16;2.22;;;0.95;;
11486;SDS011;10510;47.942;9.442;2023-04-24T08:47:16;1.38;;;1.05;;
11486;SDS011;10510;47.942;9.442;2023-04-24T08:49:17;1.23;;;0.80;;
11486;SDS011;10510;47.942;9.442;2023-04-24T08:51:18;4.60;;;0.98;;
11486;SDS011;10510;47.942;9.442;2023-04-24T08:53:20;6.00;;;3.03;;
11486;SDS011;10510;47.942;9.442;2023-04-24T08:55:20;3.70;;;2.45;;
11486;SDS011;10510;47.942;9.442;2023-04-24T08:57:21;1.88;;;0.88;;
11486;SDS011;10510;47.942;9.442;2023-04-24T08:59:22;1.08;;;0.80;;
11486;SDS011;10510;47.942;9.442;2023-04-24T09:01:22;2.25;;;0.85;;
11486;SDS011;10510;47.942;9.442;2023-04-24T09:03:25;1.80;;;0.85;;
11486;SDS011;10510;47.942;9.442;2023-04-24T09:05:27;1.45;;;0.82;;
11486;SDS011;10510;47.942;9.442;2023-04-24T09:07:28;1.98;;;1.10;;
11486;SDS011;10510;47.942;9.442;2023-04-24T09:09:35;2.08;;;1.92;;
11486;SDS011;10510;47.942;9.442;2023-04-24T09:11:37;4.35;;;1.10;;
11486;SDS011;10510;47.942;9.442;2023-04-24T09:13:37;7.45;;;1.08;;
11486;SDS011;10510;47.942;9.442;2023-04-24T09:15:38;2.83;;;0.73;;
11486;SDS011;10510;47.942;9.442;2023-04-24T09:17:41;3.08;;;1.10;;
11486;SDS011;10510;47.942;9.442;2023-04-24T09:19:42;1.33;;;0.90;;
11486;SDS011;10510;47.942;9.442;2023-04-24T09:21:42;1.52;;;0.70;;
11486;SDS011;10510;47.942;9.442;2023-04-24T09:23:45;0.77;;;0.77;;
11486;SDS011;10510;47.942;9.442;2023-04-24T09:25:45;1.75;;;1.08;;
11486;SDS011;10510;47.942;9.442;2023-04-24T09:29:57;2.25;;;1.30;;
11486;SDS011;10510;47.942;9.442;2023-04-24T09:31:58;1.45;;;1.10;;
11486;SDS011;10510;47.942;9.442;2023-04-24T09:34:00;1.42;;;0.90;;
11486;SDS011;10510;47.942;9.442;2023-04-24T09:36:03;1.15;;;0.85;;
11486;SDS011;10510;47.942;9.442;2023-04-24T09:38:05;1.73;;;0.80;;
11486;SDS011;10510;47.942;9.442;2023-04-24T09:40:09;1.30;;;0.70;;
11486;SDS011;10510;47.942;9.442;2023-04-24T09:44:15;3.57;;;0.93;;
11486;SDS011;10510;47.942;9.442;2023-04-24T09:46:16;2.30;;;0.85;;
11486;SDS011;10510;47.942;9.442;2023-04-24T09:48:18;2.72;;;1.05;;
11486;SDS011;10510;47.942;9.442;2023-04-24T09:50:18;4.72;;;1.10;;
11486;SDS011;10510;47.942;9.442;2023-04-24T09:52:19;0.82;;;0.70;;
11486;SDS011;10510;47.942;9.442;2023-04-24T09:54:20;1.38;;;0.98;;
11486;SDS011;10510;47.942;9.442;2023-04-24T09:56:21;1.08;;;0.65;;
11486;SDS011;10510;47.942;9.442;2023-04-24T09:58:24;1.20;;;0.88;;
11486;SDS011;10510;47.942;9.442;2023-04-24T10:00:30;1.98;;;0.82;;
11486;SDS011;10510;47.942;9.442;2023-04-24T10:02:32;1.65;;;0.73;;
11486;SDS011;10510;47.942;9.442;2023-04-24T10:04:32;1.70;;;0.90;;
11486;SDS011;10510;47.942;9.442;2023-04-24T10:06:33;2.88;;;0.70;;
11486;SDS011;10510;47.942;9.442;2023-04-24T10:08:34;2.25;;;0.80;;
11486;SDS011;10510;47.942;9.442;2023-04-24T10:10:38;2.63;;;0.80;;
11486;SDS011;10510;47.942;9.442;2023-04-24T10:12:41;1.40;;;0.70;;
11486;SDS011;10510;47.942;9.442;2023-04-24T10:14:42;2.35;;;0.88;;
11486;SDS011;10510;47.942;9.442;2023-04-24T10:16:46;1.55;;;1.45;;
11486;SDS011;10510;47.942;9.442;2023-04-24T10:18:47;1.45;;;1.00;;
11486;SDS011;10510;47.942;9.442;2023-04-24T10:20:48;3.83;;;0.90;;
11486;SDS011;10510;47.942;9.442;2023-04-24T10:22:49;1.58;;;0.90;;
11486;SDS011;10510;47.942;9.442;2023-04-24T10:24:50;3.95;;;0.80;;
11486;SDS011;10510;47.942;9.442;2023-04-24T10:26:52;2.63;;;0.90;;
11486;SDS011;10510;47.942;9.442;2023-04-24T10:28:52;1.50;;;0.95;;
11486;SDS011;10510;47.942;9.442;2023-04-24T10:30:56;2.47;;;1.05;;
11486;SDS011;10510;47.942;9.442;2023-04-24T10:32:59;5.47;;;1.00;;
11486;SDS011;10510;47.942;9.442;2023-04-24T10:34:59;3.78;;;1.00;;
11486;SDS011;10510;47.942;9.442;2023-04-24T10:36:59;2.22;;;1.00;;
11486;SDS011;10510;47.942;9.442;2023-04-24T10:39:01;3.72;;;1.20;;
11486;SDS011;10510;47.942;9.442;2023-04-24T10:41:07;1.90;;;0.90;;
11486;SDS011;10510;47.942;9.442;2023-04-24T10:43:16;3.65;;;1.17;;
11486;SDS011;10510;47.942;9.442;2023-04-24T10:45:19;3.25;;;1.25;;
11486;SDS011;10510;47.942;9.442;2023-04-24T10:47:23;3.95;;;1.73;;
11486;SDS011;10510;47.942;9.442;2023-04-24T10:49:28;1.63;;;1.17;;
11486;SDS011;10510;47.942;9.442;2023-04-24T10:51:48;2.03;;;1.13;;
11486;SDS011;10510;47.942;9.442;2023-04-24T10:53:53;1.63;;;0.82;;
11486;SDS011;10510;47.942;9.442;2023-04-24T10:55:57;3.28;;;1.23;;
11486;SDS011;10510;47.942;9.442;2023-04-24T10:58:04;3.00;;;1.58;;
11486;SDS011;10510;47.942;9.442;2023-04-24T11:00:20;2.13;;;1.40;;
11486;SDS011;10510;47.942;9.442;2023-04-24T11:02:35;1.70;;;1.23;;
11486;SDS011;10510;47.942;9.442;2023-04-24T11:04:37;2.72;;;0.80;;
11486;SDS011;10510;47.942;9.442;2023-04-24T11:06:37;5.38;;;1.45;;
11486;SDS011;10510;47.942;9.442;2023-04-24T11:08:38;2.28;;;1.10;;
11486;SDS011;10510;47.942;9.442;2023-04-24T11:10:46;3.40;;;0.98;;
11486;SDS011;10510;47.942;9.442;2023-04-24T11:12:47;1.00;;;0.90;;
11486;SDS011;10510;47.942;9.442;2023-04-24T11:16:57;1.48;;;0.93;;
11486;SDS011;10510;47.942;9.442;2023-04-24T11:19:00;2.20;;;1.27;;
11486;SDS011;10510;47.942;9.442;2023-04-24T11:21:09;1.40;;;1.30;;
11486;SDS011;10510;47.942;9.442;2023-04-24T11:23:12;1.92;;;1.17;;
11486;SDS011;10510;47.942;9.442;2023-04-24T11:25:13;4.88;;;1.77;;
11486;SDS011;10510;47.942;9.442;2023-04-24T11:27:16;2.13;;;1.67;;
11486;SDS011;10510;47.942;9.442;2023-04-24T11:29:20;2.25;;;0.90;;
11486;SDS011;10510;47.942;9.442;2023-04-24T11:31:37;4.32;;;0.98;;
11486;SDS011;10510;47.942;9.442;2023-04-24T11:33:38;1.60;;;0.75;;
11486;SDS011;10510;47.942;9.442;2023-04-24T11:35:39;1.35;;;0.90;;
11486;SDS011;10510;47.942;9.442;2023-04-24T11:37:41;3.17;;;1.40;;
11486;SDS011;10510;47.942;9.442;2023-04-24T11:39:43;3.75;;;1.17;;
11486;SDS011;10510;47.942;9.442;2023-04-24T11:41:43;2.63;;;1.70;;
11486;SDS011;10510;47.942;9.442;2023-04-24T11:43:43;3.30;;;1.33;;
11486;SDS011;10510;47.942;9.442;2023-04-24T11:45:48;2.20;;;0.90;;
11486;SDS011;10510;47.942;9.442;2023-04-24T11:47:50;3.05;;;0.95;;
11486;SDS011;10510;47.942;9.442;2023-04-24T11:49:50;1.85;;;0.90;;
11486;SDS011;10510;47.942;9.442;2023-04-24T11:51:54;2.08;;;1.02;;
11486;SDS011;10510;47.942;9.442;2023-04-24T11:53:55;1.95;;;1.30;;
11486;SDS011;10510;47.942;9.442;2023-04-24T11:55:56;3.47;;;1.20;;
11486;SDS011;10510;47.942;9.442;2023-04-24T11:57:57;3.47;;;1.00;;
11486;SDS011;10510;47.942;9.442;2023-04-24T11:59:58;1.65;;;0.90;;
11486;SDS011;10510;47.942;9.442;2023-04-24T12:01:59;1.40;;;0.90;;
11486;SDS011;10510;47.942;9.442;2023-04-24T12:04:00;2.28;;;1.20;;
11486;SDS011;10510;47.942;9.442;2023-04-24T12:06:10;2.55;;;1.17;;
11486;SDS011;10510;47.942;9.442;2023-04-24T12:08:11;2.63;;;1.20;;
11486;SDS011;10510;47.942;9.442;2023-04-24T12:10:12;1.17;;;0.80;;
11486;SDS011;10510;47.942;9.442;2023-04-24T12:12:13;3.35;;;1.13;;
11486;SDS011;10510;47.942;9.442;2023-04-24T12:14:14;1.88;;;0.90;;
11486;SDS011;10510;47.942;9.442;2023-04-24T12:16:14;1.52;;;0.82;;